Dinard-Pleurtuit-Saint-Malo Airport

Airport
ICAO code: 
LFRD
IATA Code: 
DNR
Summary
ICAO Region: 
EUR
Territory: 
Location: 
, Bretagne
Serving: 
Dinard
Elevation: 
219 ft
Coordinates: 
Aerial View: 
48° 35' 15.659" N, 2° 4' 47.849" W
Metar
Observation
LFRD 241600Z AUTO 06005KT CAVOK 07/03 Q1030 NOSIG
Station
Dinard
Date/Time
2022-01-24 16:00:00
Wind direction
60°
Wind speed
05 kts
Lowest cloud amount
clouds and visibility OK
Temperature
7°C
Dew point
3°C
Humidity
75%
QNH
1030 hPa
Weather condition
n/a

Runways

Designator Length Width Surface Rops
12/30 1435 45 ASP Yes/Yes
17/35 2200 45 ASP Yes/Yes
Airport map: 
Aerial View: 

SKYbrary Partners:

Safety knowledge contributed by: